createdAt,value
2019-06-20T00:00:09.436Z,0.00
2019-06-20T00:01:09.422Z,0.00
2019-06-20T00:02:09.412Z,0.00
2019-06-20T00:03:09.403Z,0.00
2019-06-20T00:04:09.415Z,0.00
2019-06-20T00:05:09.371Z,0.00
2019-06-20T00:06:09.381Z,0.00
2019-06-20T00:07:10.825Z,0.00
2019-06-20T00:08:09.342Z,0.00
2019-06-20T00:09:09.372Z,0.00
2019-06-20T00:10:09.322Z,0.00
2019-06-20T00:11:10.763Z,0.00
2019-06-20T00:12:09.323Z,0.00
2019-06-20T00:13:09.291Z,0.00
2019-06-20T00:14:09.540Z,0.00
2019-06-20T00:15:09.294Z,0.00
2019-06-20T00:16:09.258Z,0.00
2019-06-20T00:17:09.259Z,0.00
2019-06-20T00:18:09.245Z,0.00
2019-06-20T00:19:09.269Z,0.00
2019-06-20T00:20:09.226Z,0.00
2019-06-20T00:21:09.204Z,0.00
2019-06-20T00:22:09.195Z,0.00
2019-06-20T00:23:09.206Z,0.00
2019-06-20T00:24:09.200Z,0.00
2019-06-20T00:25:09.157Z,0.00
2019-06-20T00:26:10.296Z,0.00
2019-06-20T00:27:09.147Z,0.00
2019-06-20T00:28:09.133Z,0.00
2019-06-20T00:29:09.954Z,0.00
2019-06-20T00:30:10.454Z,0.00
2019-06-20T00:31:09.792Z,0.00
2019-06-20T00:32:09.096Z,0.00
2019-06-20T00:33:09.070Z,0.00
2019-06-20T00:34:09.102Z,0.00
2019-06-20T00:35:09.051Z,0.00
2019-06-20T00:36:09.039Z,0.00
2019-06-20T00:37:09.033Z,0.00
2019-06-20T00:38:09.016Z,0.00
2019-06-20T00:39:09.020Z,0.00
2019-06-20T00:40:09.791Z,0.00
2019-06-20T00:41:08.988Z,0.00
2019-06-20T00:42:08.977Z,0.00
2019-06-20T00:43:17.378Z,0.00
2019-06-20T00:44:09.957Z,0.00
2019-06-20T00:45:08.974Z,0.00
2019-06-20T00:46:08.927Z,0.00
2019-06-20T00:47:08.926Z,0.00
2019-06-20T00:48:08.906Z,0.00
2019-06-20T00:49:08.903Z,0.00
2019-06-20T00:50:08.940Z,0.00
2019-06-20T00:51:08.893Z,0.00
2019-06-20T00:52:08.915Z,0.00
2019-06-20T00:53:08.864Z,0.00
2019-06-20T00:54:08.863Z,0.00
2019-06-20T00:55:08.872Z,0.00
2019-06-20T00:56:08.832Z,0.00
2019-06-20T00:57:09.325Z,0.00
2019-06-20T00:58:08.810Z,0.00
2019-06-20T00:59:09.721Z,0.00
2019-06-20T01:00:08.830Z,0.00
2019-06-20T01:01:08.801Z,0.00
2019-06-20T01:02:08.780Z,0.00
2019-06-20T01:03:08.759Z,0.00
2019-06-20T01:04:08.752Z,0.00
2019-06-20T01:05:08.765Z,0.00
2019-06-20T01:06:08.718Z,0.00
2019-06-20T01:07:08.708Z,0.00
2019-06-20T01:08:08.706Z,0.00
2019-06-20T01:09:09.378Z,0.00
2019-06-20T01:10:09.365Z,0.00
2019-06-20T01:11:08.666Z,0.00
2019-06-20T01:12:08.655Z,0.00
2019-06-20T01:13:08.646Z,0.00
2019-06-20T01:14:08.635Z,0.00
2019-06-20T01:15:08.656Z,0.00
2019-06-20T01:16:08.612Z,0.00
2019-06-20T01:17:08.626Z,0.00
2019-06-20T01:18:08.591Z,0.00
2019-06-20T01:19:08.579Z,0.00
2019-06-20T01:20:08.599Z,0.00
2019-06-20T01:21:08.580Z,0.00
2019-06-20T01:22:10.009Z,0.00
2019-06-20T01:23:08.546Z,0.00
2019-06-20T01:24:08.530Z,0.00
2019-06-20T01:25:08.568Z,0.00
2019-06-20T01:26:08.519Z,0.00
2019-06-20T01:27:08.489Z,0.00
2019-06-20T01:28:08.486Z,0.00
2019-06-20T01:29:08.487Z,0.00
2019-06-20T01:30:08.517Z,0.00
2019-06-20T01:31:08.459Z,0.00
2019-06-20T01:32:08.458Z,0.00
2019-06-20T01:33:08.436Z,0.00
2019-06-20T01:34:08.426Z,0.00
2019-06-20T01:35:09.302Z,0.00
2019-06-20T01:36:08.413Z,0.00
2019-06-20T01:37:08.393Z,0.00
2019-06-20T01:38:08.381Z,0.00
2019-06-20T01:39:08.372Z,0.00
2019-06-20T01:40:08.906Z,0.00
2019-06-20T01:41:08.345Z,0.00
2019-06-20T01:42:08.343Z,0.00
2019-06-20T01:43:08.333Z,0.00
2019-06-20T01:44:08.322Z,0.00
2019-06-20T01:45:08.331Z,0.00
2019-06-20T01:46:09.152Z,0.00
2019-06-20T01:47:08.891Z,0.00
2019-06-20T01:48:08.272Z,0.00
2019-06-20T01:49:08.261Z,0.00
2019-06-20T01:50:08.278Z,0.00
2019-06-20T01:51:08.273Z,0.00
2019-06-20T01:52:08.232Z,0.00
2019-06-20T01:53:08.228Z,0.00
2019-06-20T01:54:08.218Z,0.00
2019-06-20T01:55:10.338Z,0.00
2019-06-20T01:56:08.217Z,0.00
2019-06-20T01:57:08.186Z,0.00
2019-06-20T01:58:08.195Z,0.00
2019-06-20T01:59:08.211Z,0.00
2019-06-20T02:00:08.181Z,0.00
2019-06-20T02:01:08.155Z,0.00
2019-06-20T02:02:08.155Z,0.00
2019-06-20T02:03:08.116Z,0.00
2019-06-20T02:04:08.125Z,0.00
2019-06-20T02:05:08.095Z,0.00
2019-06-20T02:06:08.113Z,0.00
2019-06-20T02:07:08.071Z,0.00
2019-06-20T02:08:08.079Z,0.00
2019-06-20T02:09:08.043Z,0.00
2019-06-20T02:10:08.031Z,0.00
2019-06-20T02:11:08.062Z,0.00
2019-06-20T02:12:08.011Z,0.00
2019-06-20T02:13:08.012Z,0.00
2019-06-20T02:14:08.080Z,0.00
2019-06-20T02:15:07.994Z,0.00
2019-06-20T02:16:08.029Z,0.00
2019-06-20T02:17:07.965Z,0.00
2019-06-20T02:18:07.960Z,0.00
2019-06-20T02:19:07.939Z,0.00
2019-06-20T02:20:07.949Z,0.00
2019-06-20T02:21:07.953Z,0.00
2019-06-20T02:22:07.918Z,0.00
2019-06-20T02:23:07.916Z,0.00
2019-06-20T02:24:07.905Z,0.00
2019-06-20T02:25:07.896Z,0.00
2019-06-20T02:26:07.895Z,0.00
2019-06-20T02:27:07.855Z,0.00
2019-06-20T02:28:07.844Z,0.00
2019-06-20T02:29:08.502Z,0.00
2019-06-20T02:30:07.824Z,0.00
2019-06-20T02:31:07.862Z,0.00
2019-06-20T02:32:07.803Z,0.00
2019-06-20T02:33:07.791Z,0.00
2019-06-20T02:34:07.815Z,0.00
2019-06-20T02:35:07.779Z,0.00
2019-06-20T02:36:07.761Z,0.00
2019-06-20T02:37:07.769Z,0.00
2019-06-20T02:38:07.731Z,0.00
2019-06-20T02:39:07.749Z,0.00
2019-06-20T02:40:07.709Z,0.00
2019-06-20T02:41:08.508Z,0.00
2019-06-20T02:42:07.724Z,0.00
2019-06-20T02:43:07.685Z,0.00
2019-06-20T02:44:24.756Z,0.00
2019-06-20T02:45:08.666Z,0.00
2019-06-20T02:46:07.672Z,0.00
2019-06-20T02:47:07.724Z,0.00
2019-06-20T02:48:07.639Z,0.00
2019-06-20T02:49:07.619Z,0.00
2019-06-20T02:50:07.606Z,0.00
2019-06-20T02:51:07.595Z,0.00
2019-06-20T02:52:07.622Z,0.00
2019-06-20T02:53:07.584Z,0.00
2019-06-20T02:54:07.580Z,0.00
2019-06-20T02:55:07.561Z,0.00
2019-06-20T02:56:07.544Z,0.00
2019-06-20T02:57:07.602Z,0.00
2019-06-20T02:58:07.557Z,0.00
2019-06-20T02:59:07.512Z,5.62
2019-06-20T03:00:08.044Z,5.62
2019-06-20T03:01:07.515Z,5.62
2019-06-20T03:02:07.618Z,5.62
2019-06-20T03:03:07.576Z,5.62
2019-06-20T03:04:07.458Z,5.62
2019-06-20T03:05:07.449Z,5.62
2019-06-20T03:06:07.456Z,5.62
2019-06-20T03:07:07.457Z,5.62
2019-06-20T03:08:07.417Z,5.62
2019-06-20T03:09:07.415Z,5.62
2019-06-20T03:10:07.394Z,11.25
2019-06-20T03:11:07.430Z,11.25
2019-06-20T03:12:07.395Z,11.25
2019-06-20T03:13:09.457Z,11.25
2019-06-20T03:14:07.346Z,11.25
2019-06-20T03:15:07.337Z,11.25
2019-06-20T03:16:07.348Z,11.25
2019-06-20T03:17:07.354Z,11.25
2019-06-20T03:18:07.373Z,11.25
2019-06-20T03:19:07.293Z,11.25
2019-06-20T03:20:07.334Z,11.25
2019-06-20T03:21:07.273Z,16.88
2019-06-20T03:22:07.334Z,16.88
2019-06-20T03:23:07.260Z,16.88
2019-06-20T03:24:07.242Z,16.88
2019-06-20T03:25:07.231Z,16.88
2019-06-20T03:26:07.220Z,16.88
2019-06-20T03:27:07.260Z,16.88
2019-06-20T03:28:07.210Z,16.88
2019-06-20T03:29:07.225Z,16.88
2019-06-20T03:30:07.952Z,16.88
2019-06-20T03:31:07.179Z,16.88
2019-06-20T03:32:08.049Z,16.88
2019-06-20T03:33:07.173Z,16.88
2019-06-20T03:34:07.170Z,16.88
2019-06-20T03:35:07.127Z,16.88
2019-06-20T03:36:08.069Z,16.88
2019-06-20T03:37:07.139Z,16.88
2019-06-20T03:38:07.103Z,16.88
2019-06-20T03:39:07.083Z,16.88
2019-06-20T03:40:07.074Z,16.88
2019-06-20T03:41:07.066Z,16.88
2019-06-20T03:42:07.094Z,16.88
2019-06-20T03:43:07.994Z,16.88
2019-06-20T03:44:07.024Z,16.88
2019-06-20T03:45:07.031Z,16.88
2019-06-20T03:46:07.024Z,16.88
2019-06-20T03:47:07.034Z,16.88
2019-06-20T03:48:06.991Z,16.88
2019-06-20T03:49:06.979Z,16.88
2019-06-20T03:50:06.975Z,16.88
2019-06-20T03:51:06.957Z,11.25
2019-06-20T03:52:06.979Z,11.25
2019-06-20T03:53:06.942Z,5.62
2019-06-20T03:54:06.929Z,5.62
2019-06-20T03:55:06.917Z,5.62
2019-06-20T03:56:06.906Z,5.62
2019-06-20T03:57:06.920Z,5.62
2019-06-20T03:58:06.876Z,0.00
2019-06-20T03:59:06.878Z,0.00
2019-06-20T04:00:06.864Z,0.00
2019-06-20T04:01:06.844Z,0.00
2019-06-20T04:02:06.835Z,0.00
2019-06-20T04:03:06.893Z,0.00
2019-06-20T04:04:06.813Z,0.00
2019-06-20T04:05:06.817Z,0.00
2019-06-20T04:06:06.817Z,0.00
2019-06-20T04:07:07.633Z,0.00
2019-06-20T04:08:06.848Z,0.00
2019-06-20T04:09:06.761Z,0.00
2019-06-20T04:10:06.807Z,0.00
2019-06-20T04:11:06.734Z,0.00
2019-06-20T04:12:06.729Z,0.00
2019-06-20T04:13:06.742Z,0.00
2019-06-20T04:14:06.710Z,0.00
2019-06-20T04:15:18.447Z,0.00
2019-06-20T04:16:08.277Z,0.00
2019-06-20T04:17:06.686Z,0.00
2019-06-20T04:18:06.704Z,0.00
2019-06-20T04:19:06.691Z,0.00
2019-06-20T04:20:06.664Z,0.00
2019-06-20T04:21:06.658Z,0.00
2019-06-20T04:22:06.631Z,0.00
2019-06-20T04:23:06.635Z,0.00
2019-06-20T04:24:06.595Z,0.00
2019-06-20T04:25:06.628Z,0.00
2019-06-20T04:26:06.590Z,0.00
2019-06-20T04:27:06.579Z,0.00
2019-06-20T04:28:06.593Z,0.00
2019-06-20T04:29:06.569Z,0.00
2019-06-20T04:30:06.694Z,0.00
2019-06-20T04:31:07.124Z,0.00
2019-06-20T04:32:06.560Z,0.00
2019-06-20T04:33:06.531Z,0.00
2019-06-20T04:34:07.223Z,0.00
2019-06-20T04:35:06.508Z,0.00
2019-06-20T04:36:06.471Z,0.00
2019-06-20T04:37:06.457Z,0.00
2019-06-20T04:38:06.908Z,0.00
2019-06-20T04:39:18.662Z,0.00
2019-06-20T04:40:07.437Z,0.00
2019-06-20T04:41:06.409Z,0.00
2019-06-20T04:42:06.407Z,0.00
2019-06-20T04:43:06.425Z,0.00
2019-06-20T04:44:06.386Z,0.00
2019-06-20T04:45:06.376Z,0.00
2019-06-20T04:46:06.367Z,0.00
2019-06-20T04:47:07.255Z,0.00
2019-06-20T04:48:06.376Z,0.00
2019-06-20T04:49:06.328Z,0.00
2019-06-20T04:50:07.216Z,0.00
2019-06-20T04:51:06.304Z,0.00
2019-06-20T04:52:06.308Z,0.00
2019-06-20T04:53:06.314Z,0.00
2019-06-20T04:54:06.285Z,0.00
2019-06-20T04:55:06.288Z,0.00
2019-06-20T04:56:06.278Z,0.00
2019-06-20T04:57:06.246Z,0.00
2019-06-20T04:58:06.281Z,0.00
2019-06-20T04:59:06.781Z,0.00
2019-06-20T05:00:06.220Z,0.00
2019-06-20T05:01:06.211Z,0.00
2019-06-20T05:02:06.230Z,0.00
2019-06-20T05:03:06.219Z,0.00
2019-06-20T05:04:06.181Z,0.00
2019-06-20T05:05:06.171Z,0.00
2019-06-20T05:06:06.170Z,5.62
2019-06-20T05:07:06.138Z,5.62
2019-06-20T05:08:06.581Z,5.62
2019-06-20T05:09:06.137Z,5.62
2019-06-20T05:10:06.117Z,5.62
2019-06-20T05:11:06.095Z,5.62
2019-06-20T05:12:06.095Z,11.25
2019-06-20T05:13:06.080Z,11.25
2019-06-20T05:14:06.093Z,11.25
2019-06-20T05:15:06.046Z,11.25
2019-06-20T05:16:06.082Z,16.88
2019-06-20T05:17:07.253Z,16.88
2019-06-20T05:18:06.024Z,16.88
2019-06-20T05:19:06.042Z,22.50
2019-06-20T05:20:06.002Z,22.50
2019-06-20T05:21:05.993Z,22.50
2019-06-20T05:22:05.980Z,22.50
2019-06-20T05:23:05.975Z,22.50
2019-06-20T05:24:06.000Z,22.50
2019-06-20T05:25:06.827Z,22.50
2019-06-20T05:26:05.939Z,22.50
2019-06-20T05:27:05.936Z,22.50
2019-06-20T05:28:05.909Z,22.50
2019-06-20T05:29:05.939Z,22.50
2019-06-20T05:30:05.898Z,22.50
2019-06-20T05:31:05.909Z,22.50
2019-06-20T05:32:05.876Z,22.50
2019-06-20T05:33:05.889Z,28.12
2019-06-20T05:34:05.892Z,28.12
2019-06-20T05:35:05.844Z,28.12
2019-06-20T05:36:05.826Z,28.12
2019-06-20T05:37:06.736Z,28.12
2019-06-20T05:38:05.838Z,33.75
2019-06-20T05:39:05.844Z,33.75
2019-06-20T05:40:05.793Z,33.75
2019-06-20T05:41:05.831Z,39.38
2019-06-20T05:42:05.770Z,39.38
2019-06-20T05:43:05.774Z,39.38
2019-06-20T05:44:05.784Z,39.38
2019-06-20T05:45:05.742Z,45.00
2019-06-20T05:46:10.773Z,45.00
2019-06-20T05:47:12.606Z,50.62
2019-06-20T05:48:07.622Z,50.62
2019-06-20T05:49:05.739Z,50.62
2019-06-20T05:50:05.679Z,56.25
2019-06-20T05:51:06.362Z,56.25
2019-06-20T05:52:05.676Z,61.88
2019-06-20T05:53:05.990Z,61.88
2019-06-20T05:54:05.675Z,61.88
2019-06-20T05:55:05.864Z,61.88
2019-06-20T05:56:05.616Z,61.88
2019-06-20T05:57:05.607Z,61.88
2019-06-20T05:58:05.590Z,61.88
2019-06-20T05:59:05.619Z,61.88
2019-06-20T06:00:05.598Z,67.50
2019-06-20T06:01:05.563Z,73.12
2019-06-20T06:02:05.554Z,73.12
2019-06-20T06:03:07.272Z,78.75
2019-06-20T06:04:05.574Z,84.38
2019-06-20T06:05:05.540Z,90.00
2019-06-20T06:06:05.510Z,90.00
2019-06-20T06:07:05.502Z,95.62
2019-06-20T06:08:06.823Z,95.62
2019-06-20T06:09:05.502Z,95.62
2019-06-20T06:10:05.638Z,95.62
2019-06-20T06:11:05.451Z,95.62
2019-06-20T06:12:06.000Z,95.62
2019-06-20T06:13:05.444Z,95.62
2019-06-20T06:14:05.450Z,95.62
2019-06-20T06:15:07.344Z,95.62
2019-06-20T06:16:05.437Z,95.62
2019-06-20T06:17:05.397Z,90.00
2019-06-20T06:18:05.400Z,90.00
2019-06-20T06:19:05.408Z,90.00
2019-06-20T06:20:05.367Z,90.00
2019-06-20T06:21:05.367Z,90.00
2019-06-20T06:22:05.368Z,90.00
2019-06-20T06:23:05.853Z,95.62
2019-06-20T06:24:05.394Z,95.62
2019-06-20T06:25:05.366Z,95.62
2019-06-20T06:26:05.848Z,95.62
2019-06-20T06:27:05.296Z,101.25
2019-06-20T06:28:05.314Z,101.25
2019-06-20T06:29:05.280Z,106.88
2019-06-20T06:30:06.074Z,118.12
2019-06-20T06:31:05.280Z,123.75
2019-06-20T06:32:05.232Z,129.38
2019-06-20T06:33:05.223Z,140.62
2019-06-20T06:34:05.213Z,151.88
2019-06-20T06:35:05.237Z,146.25
2019-06-20T06:36:05.214Z,151.88
2019-06-20T06:37:05.176Z,157.50
2019-06-20T06:38:05.189Z,151.88
2019-06-20T06:39:05.150Z,146.25
2019-06-20T06:40:05.168Z,146.25
2019-06-20T06:41:05.138Z,151.88
2019-06-20T06:42:05.131Z,151.88
2019-06-20T06:43:06.069Z,163.12
2019-06-20T06:44:07.614Z,174.38
2019-06-20T06:45:06.068Z,191.25
2019-06-20T06:46:06.070Z,191.25
2019-06-20T06:47:05.088Z,191.25
2019-06-20T06:48:05.063Z,191.25
2019-06-20T06:49:05.053Z,191.25
2019-06-20T06:50:05.085Z,196.88
2019-06-20T06:51:05.025Z,191.25
2019-06-20T06:52:05.023Z,168.75
2019-06-20T06:53:05.013Z,163.12
2019-06-20T06:54:05.043Z,157.50
2019-06-20T06:55:05.012Z,157.50
2019-06-20T06:56:04.980Z,163.12
2019-06-20T06:57:04.985Z,163.12
2019-06-20T06:58:05.019Z,180.00
2019-06-20T06:59:04.942Z,180.00
2019-06-20T07:00:04.971Z,185.62
2019-06-20T07:01:05.563Z,202.50
2019-06-20T07:02:04.923Z,208.12
2019-06-20T07:03:04.910Z,213.75
2019-06-20T07:04:04.899Z,225.00
2019-06-20T07:05:05.028Z,241.88
2019-06-20T07:06:04.877Z,247.50
2019-06-20T07:07:04.862Z,236.25
2019-06-20T07:08:05.717Z,241.88
2019-06-20T07:09:04.837Z,241.88
2019-06-20T07:10:05.565Z,236.25
2019-06-20T07:11:04.862Z,208.12
2019-06-20T07:12:04.821Z,185.62
2019-06-20T07:13:04.797Z,191.25
2019-06-20T07:14:04.805Z,219.38
2019-06-20T07:15:04.838Z,230.62
2019-06-20T07:16:05.553Z,241.88
2019-06-20T07:17:04.766Z,225.00
2019-06-20T07:18:05.622Z,225.00
2019-06-20T07:19:05.563Z,208.12
2019-06-20T07:20:05.554Z,157.50
2019-06-20T07:21:04.703Z,140.62
2019-06-20T07:22:04.701Z,129.38
2019-06-20T07:23:04.715Z,123.75
2019-06-20T07:24:04.710Z,151.88
2019-06-20T07:25:04.700Z,163.12
2019-06-20T07:26:04.662Z,168.75
2019-06-20T07:27:04.661Z,174.38
2019-06-20T07:28:04.638Z,191.25
2019-06-20T07:29:04.630Z,202.50
2019-06-20T07:30:04.703Z,208.12
2019-06-20T07:31:04.683Z,219.38
2019-06-20T07:32:04.660Z,230.62
2019-06-20T07:33:04.587Z,236.25
2019-06-20T07:34:04.575Z,247.50
2019-06-20T07:35:04.598Z,241.88
2019-06-20T07:36:04.554Z,236.25
2019-06-20T07:37:04.536Z,230.62
2019-06-20T07:38:04.536Z,208.12
2019-06-20T07:39:04.535Z,247.50
2019-06-20T07:40:04.515Z,258.75
2019-06-20T07:41:04.553Z,270.00
2019-06-20T07:42:04.493Z,275.62
2019-06-20T07:43:04.473Z,275.62
2019-06-20T07:44:04.465Z,281.25
2019-06-20T07:45:05.282Z,275.62
2019-06-20T07:46:05.279Z,281.25
2019-06-20T07:47:17.095Z,275.62
2019-06-20T07:48:05.420Z,275.62
2019-06-20T07:49:05.300Z,281.25
2019-06-20T07:50:04.447Z,253.12
2019-06-20T07:51:04.446Z,225.00
2019-06-20T07:52:04.400Z,258.75
2019-06-20T07:53:04.420Z,270.00
2019-06-20T07:54:05.250Z,292.50
2019-06-20T07:55:04.394Z,292.50
2019-06-20T07:56:04.862Z,298.12
2019-06-20T07:57:04.340Z,292.50
2019-06-20T07:58:04.321Z,298.12
2019-06-20T07:59:05.131Z,298.12
2019-06-20T08:00:04.301Z,292.50
2019-06-20T08:01:04.318Z,298.12
2019-06-20T08:02:04.296Z,292.50
2019-06-20T08:03:04.266Z,258.75
2019-06-20T08:04:04.256Z,309.38
2019-06-20T08:05:04.245Z,303.75
2019-06-20T08:06:04.280Z,298.12
2019-06-20T08:07:04.224Z,309.38
2019-06-20T08:08:04.223Z,303.75
2019-06-20T08:09:04.747Z,320.62
2019-06-20T08:10:04.389Z,309.38
2019-06-20T08:11:04.214Z,303.75
2019-06-20T08:12:04.183Z,286.88
2019-06-20T08:13:04.166Z,281.25
2019-06-20T08:14:04.147Z,298.12
2019-06-20T08:15:14.465Z,309.38
2019-06-20T08:16:05.171Z,315.00
2019-06-20T08:17:04.161Z,320.62
2019-06-20T08:18:04.106Z,343.12
2019-06-20T08:19:04.131Z,348.75
2019-06-20T08:20:04.091Z,360.00
2019-06-20T08:21:04.459Z,354.38
2019-06-20T08:22:04.751Z,354.38
2019-06-20T08:23:04.069Z,303.75
2019-06-20T08:24:04.087Z,326.25
2019-06-20T08:25:05.285Z,348.75
2019-06-20T08:26:04.554Z,343.12
2019-06-20T08:27:04.920Z,354.38
2019-06-20T08:28:04.370Z,365.62
2019-06-20T08:29:14.937Z,365.62
2019-06-20T08:30:05.227Z,371.25
2019-06-20T08:31:04.821Z,348.75
2019-06-20T08:32:04.725Z,348.75
2019-06-20T08:33:09.653Z,348.75
2019-06-20T08:34:04.984Z,337.50
2019-06-20T08:35:04.727Z,343.12
2019-06-20T08:36:04.570Z,343.12
2019-06-20T08:37:04.388Z,376.88
2019-06-20T08:38:05.591Z,376.88
2019-06-20T08:39:04.495Z,376.88
2019-06-20T08:40:04.230Z,365.62
2019-06-20T08:41:04.613Z,354.38
2019-06-20T08:42:04.330Z,371.25
2019-06-20T08:43:04.198Z,343.12
2019-06-20T08:44:03.967Z,320.62
2019-06-20T08:45:06.050Z,326.25
2019-06-20T08:46:04.529Z,320.62
2019-06-20T08:47:03.947Z,326.25
2019-06-20T08:48:04.735Z,331.88
2019-06-20T08:49:03.780Z,292.50
2019-06-20T08:50:03.929Z,309.38
2019-06-20T08:51:04.521Z,360.00
2019-06-20T08:52:03.768Z,343.12
2019-06-20T08:53:03.778Z,292.50
2019-06-20T08:54:03.730Z,298.12
2019-06-20T08:55:03.755Z,270.00
2019-06-20T08:56:05.423Z,298.12
2019-06-20T08:57:05.727Z,286.88
2019-06-20T08:58:05.449Z,303.75
2019-06-20T08:59:04.781Z,270.00
2019-06-20T09:04:03.633Z,236.25
2019-06-20T09:09:04.477Z,286.88
2019-06-20T09:10:04.254Z,320.62
2019-06-20T09:11:04.062Z,315.00
2019-06-20T09:12:05.002Z,286.88
2019-06-20T09:13:03.828Z,275.62
2019-06-20T09:14:04.095Z,253.12
2019-06-20T09:15:04.342Z,258.75
2019-06-20T09:16:03.501Z,258.75
2019-06-20T09:17:03.521Z,253.12
2019-06-20T09:18:03.530Z,247.50
2019-06-20T09:19:03.459Z,241.88
2019-06-20T09:20:03.457Z,241.88
2019-06-20T09:21:03.454Z,236.25
2019-06-20T09:22:05.026Z,236.25
2019-06-20T09:23:03.428Z,236.25
2019-06-20T09:24:04.181Z,241.88
2019-06-20T09:25:03.418Z,241.88
2019-06-20T09:26:03.891Z,247.50
2019-06-20T09:27:04.273Z,253.12
2019-06-20T09:28:03.375Z,253.12
2019-06-20T09:29:04.147Z,253.12
2019-06-20T09:30:03.608Z,258.75
2019-06-20T09:31:04.125Z,292.50
2019-06-20T09:32:04.649Z,286.88
2019-06-20T09:33:04.281Z,270.00
2019-06-20T09:34:05.301Z,270.00
2019-06-20T09:35:03.292Z,264.38
2019-06-20T09:36:04.012Z,286.88
2019-06-20T09:37:04.037Z,258.75
2019-06-20T09:38:03.508Z,253.12
2019-06-20T09:39:03.797Z,281.25
2019-06-20T09:40:03.652Z,258.75
2019-06-20T09:41:03.487Z,275.62
2019-06-20T09:42:03.476Z,275.62
2019-06-20T09:43:03.292Z,281.25
2019-06-20T09:44:03.241Z,281.25
2019-06-20T09:45:03.196Z,275.62
2019-06-20T09:46:03.191Z,270.00
2019-06-20T09:47:03.199Z,258.75
2019-06-20T09:48:03.159Z,241.88
2019-06-20T09:49:03.149Z,225.00
2019-06-20T09:50:03.150Z,208.12
2019-06-20T09:51:03.129Z,213.75
2019-06-20T09:52:03.149Z,213.75
2019-06-20T09:53:03.106Z,213.75
2019-06-20T09:54:03.090Z,191.25
2019-06-20T09:55:03.105Z,191.25
2019-06-20T09:56:03.177Z,213.75
2019-06-20T09:57:03.101Z,270.00
2019-06-20T09:58:03.054Z,275.62
2019-06-20T09:59:04.027Z,281.25
2019-06-20T10:00:10.008Z,281.25
2019-06-20T10:01:04.036Z,275.62
2019-06-20T10:02:03.014Z,264.38
2019-06-20T10:03:03.117Z,253.12
2019-06-20T10:04:03.037Z,258.75
2019-06-20T10:05:02.977Z,253.12
2019-06-20T10:06:13.474Z,241.88
2019-06-20T10:07:03.963Z,253.12
2019-06-20T10:08:02.976Z,275.62
2019-06-20T10:09:02.943Z,292.50
2019-06-20T10:10:02.924Z,275.62
2019-06-20T10:11:03.544Z,286.88
2019-06-20T10:12:02.929Z,258.75
2019-06-20T10:13:02.933Z,258.75
2019-06-20T10:14:02.886Z,253.12
2019-06-20T10:15:02.948Z,236.25
2019-06-20T10:16:02.961Z,225.00
2019-06-20T10:17:02.842Z,253.12
2019-06-20T10:18:02.860Z,286.88
2019-06-20T10:19:02.829Z,320.62
2019-06-20T10:20:02.883Z,303.75
2019-06-20T10:21:02.868Z,320.62
2019-06-20T10:22:02.799Z,247.50
2019-06-20T10:23:03.546Z,225.00
2019-06-20T10:24:02.809Z,247.50
2019-06-20T10:25:02.765Z,213.75
2019-06-20T10:26:02.757Z,202.50
2019-06-20T10:27:02.741Z,247.50
2019-06-20T10:28:02.813Z,253.12
2019-06-20T10:29:02.805Z,315.00
2019-06-20T10:30:13.811Z,331.88
2019-06-20T10:31:03.707Z,270.00
2019-06-20T10:32:02.692Z,337.50
2019-06-20T10:33:02.713Z,371.25
2019-06-20T10:34:02.695Z,405.00
2019-06-20T10:35:03.935Z,421.88
2019-06-20T10:36:02.654Z,405.00
2019-06-20T10:37:03.500Z,399.38
2019-06-20T10:38:02.692Z,264.38
2019-06-20T10:39:02.615Z,230.62
2019-06-20T10:40:02.688Z,225.00
2019-06-20T10:41:02.602Z,208.12
2019-06-20T10:42:02.606Z,208.12
2019-06-20T10:43:02.605Z,213.75
2019-06-20T10:44:02.560Z,236.25
2019-06-20T10:45:02.551Z,388.12
2019-06-20T10:46:02.585Z,225.00
2019-06-20T10:47:02.710Z,208.12
2019-06-20T10:48:09.564Z,196.88
2019-06-20T10:49:02.503Z,191.25
2019-06-20T10:50:02.521Z,196.88
2019-06-20T10:51:02.555Z,208.12
2019-06-20T10:52:02.474Z,219.38
2019-06-20T10:53:02.496Z,416.25
2019-06-20T10:54:02.496Z,230.62
2019-06-20T10:55:02.445Z,241.88
2019-06-20T10:56:02.522Z,264.38
2019-06-20T10:57:02.431Z,258.75
2019-06-20T10:58:03.241Z,241.88
2019-06-20T10:59:02.422Z,264.38
2019-06-20T11:00:02.429Z,309.38
2019-06-20T11:01:02.374Z,450.00
2019-06-20T11:02:02.363Z,337.50
2019-06-20T11:03:02.351Z,303.75
2019-06-20T11:04:02.432Z,517.50
2019-06-20T11:05:02.332Z,708.75
2019-06-20T11:06:02.368Z,731.25
2019-06-20T11:07:02.316Z,691.88
2019-06-20T11:08:02.310Z,646.88
2019-06-20T11:09:03.230Z,590.62
2019-06-20T11:10:02.286Z,523.12
2019-06-20T11:11:02.276Z,258.75
2019-06-20T11:12:02.267Z,393.75
2019-06-20T11:13:02.248Z,416.25
2019-06-20T11:14:02.268Z,393.75
2019-06-20T11:15:02.245Z,421.88
2019-06-20T11:16:02.216Z,444.38
2019-06-20T11:17:02.751Z,455.62
2019-06-20T11:18:02.465Z,466.88
2019-06-20T11:19:02.215Z,433.12
2019-06-20T11:20:03.071Z,461.25
2019-06-20T11:21:02.212Z,427.50
2019-06-20T11:22:02.239Z,388.12
2019-06-20T11:23:02.275Z,410.62
2019-06-20T11:24:02.781Z,393.75
2019-06-20T11:25:02.122Z,410.62
2019-06-20T11:26:02.118Z,399.38
2019-06-20T11:27:02.103Z,388.12
2019-06-20T11:28:02.099Z,343.12
2019-06-20T11:29:02.111Z,382.50
2019-06-20T11:30:02.071Z,376.88
2019-06-20T11:31:02.062Z,393.75
2019-06-20T11:32:02.061Z,382.50
2019-06-20T11:33:02.065Z,388.12
2019-06-20T11:34:02.062Z,360.00
2019-06-20T11:35:02.020Z,354.38
2019-06-20T11:36:02.082Z,331.88
2019-06-20T11:37:02.008Z,315.00
2019-06-20T11:38:01.996Z,286.88
2019-06-20T11:39:02.069Z,281.25
2019-06-20T11:40:02.007Z,286.88
2019-06-20T11:41:01.969Z,281.25
2019-06-20T11:42:01.985Z,286.88
2019-06-20T11:43:01.942Z,292.50
2019-06-20T11:44:02.005Z,309.38
2019-06-20T11:45:01.947Z,298.12
2019-06-20T11:46:01.908Z,298.12
2019-06-20T11:47:01.896Z,281.25
2019-06-20T11:48:01.928Z,253.12
2019-06-20T11:49:01.883Z,241.88
2019-06-20T11:50:01.987Z,270.00
2019-06-20T11:51:01.902Z,275.62
2019-06-20T11:52:02.769Z,225.00
2019-06-20T11:53:01.872Z,281.25
2019-06-20T11:54:01.824Z,286.88
2019-06-20T11:55:01.915Z,371.25
2019-06-20T11:56:02.451Z,371.25
2019-06-20T11:57:01.795Z,568.12
2019-06-20T11:58:01.784Z,331.88
2019-06-20T11:59:01.772Z,270.00
2019-06-20T12:00:01.793Z,601.88
2019-06-20T12:01:03.886Z,691.88
2019-06-20T12:02:01.753Z,663.75
2019-06-20T12:03:01.732Z,691.88
2019-06-20T12:04:01.722Z,534.38
2019-06-20T12:05:01.758Z,731.25
2019-06-20T12:06:01.708Z,703.12
2019-06-20T12:07:01.690Z,708.75
2019-06-20T12:08:02.392Z,708.75
2019-06-20T12:09:02.401Z,703.12
2019-06-20T12:10:01.690Z,703.12
2019-06-20T12:11:01.676Z,708.75
2019-06-20T12:12:01.636Z,714.38
2019-06-20T12:13:01.641Z,714.38
2019-06-20T12:14:01.620Z,714.38
2019-06-20T12:15:01.630Z,708.75
2019-06-20T12:16:01.588Z,691.88
2019-06-20T12:17:01.588Z,720.00
2019-06-20T12:18:01.582Z,466.88
2019-06-20T12:19:01.574Z,686.25
2019-06-20T12:20:01.611Z,748.12
2019-06-20T12:21:01.546Z,748.12
2019-06-20T12:22:01.534Z,416.25
2019-06-20T12:23:01.528Z,652.50
2019-06-20T12:24:01.516Z,286.88
2019-06-20T12:25:01.525Z,613.12
2019-06-20T12:26:01.496Z,579.38
2019-06-20T12:27:02.454Z,540.00
2019-06-20T12:28:01.509Z,551.25
2019-06-20T12:29:01.462Z,523.12
2019-06-20T12:30:02.305Z,450.00
2019-06-20T12:31:01.469Z,500.62
2019-06-20T12:32:01.423Z,472.50
2019-06-20T12:33:01.595Z,354.38
2019-06-20T12:34:01.411Z,433.12
2019-06-20T12:35:01.433Z,444.38
2019-06-20T12:36:01.449Z,410.62
2019-06-20T12:37:01.372Z,489.38
2019-06-20T12:38:01.413Z,511.88
2019-06-20T12:39:01.358Z,528.75
2019-06-20T12:40:01.379Z,523.12
2019-06-20T12:41:01.859Z,506.25
2019-06-20T12:42:01.338Z,472.50
2019-06-20T12:43:01.319Z,540.00
2019-06-20T12:44:01.430Z,551.25
2019-06-20T12:45:01.836Z,315.00
2019-06-20T12:46:01.940Z,427.50
2019-06-20T12:47:02.228Z,427.50
2019-06-20T12:48:01.265Z,405.00
2019-06-20T12:49:01.259Z,399.38
2019-06-20T12:50:01.912Z,337.50
2019-06-20T12:51:01.235Z,241.88
2019-06-20T12:52:01.219Z,241.88
2019-06-20T12:53:01.757Z,264.38
2019-06-20T12:54:01.208Z,258.75
2019-06-20T12:55:01.224Z,298.12
2019-06-20T12:56:01.188Z,551.25
2019-06-20T12:57:01.177Z,489.38